< < Back
Terminal Aerodrome Forecast


Current Version              Previous Versions:   1  2  3  4  5  6  7  8  9  

Terminal Aerodrome Forecast

825
FTUS42 KGSP 300035 AAA
TAFHKY
TAF AMD
KHKY 300035Z 3001/3024 VRB03KT P6SM VCSH BKN050
      TEMPO 3001/3003 SCT050 BKN100
     FM300300 00000KT P6SM SCT060
     FM300600 00000KT 4SM BR FEW060
     FM301300 00000KT P6SM BKN250
     FM301600 19003KT P6SM BKN035
     FM301900 18006KT P6SM SCT045=

Latest METAR

510
SAUS70 KWBC 300200 RRF
MTRHKY
METAR KHKY 300153Z AUTO 07003KT 10SM TS SCT080 OVC100 22/18 A3019 RMK
AO2 RAB19E30 TSB46 SLP203 P0000 T02170178


USA.gov is the U.S. government's official web portal to all federal, state and local government web resources and services.